Hovedside
METAR-TAF:

METAR-TAF

Lufthavner :

Maradi, Niger

breddegrad: 13-28N, lengdegrad: 007-05E, høyde over havet: 372 m

Gjeldene værobservasjon

Denne rapporten ble laget for 1 time og 47 minutter siden, klokken 15:00 UTC
Vind 4 kt fra Vest-nordvest
Temperatur 30°C
Luftfuktighet 75%
Trykk 1012 hPa
Sikt 10 km eller mer
Få skyer i en høyde av 3300 ft

METAR: DRRM 171500Z 30004KT 9999 FEW033 30/25 Q1012

Tid: 17:47 (16:47 UTC)


TAF: fraværende

Værobservasjoner og værvarsel for over 4000 flyplasser (METAR- og TAF-rapporter).

Tilgjengelige stasjoner er representert av de røde og gule prikkene på kartet.

Hold musepekeren over prikken for å se navnet på stasjonen.

Klikk så for å se værobservasjoner og -varsler.

For å forandre kartet kan du klikke på den grønne knappen med svart kryss for å zoome inn, på den grønne knappen med strek for å zoome ut, eller på de grønne pilene for å se tilstøtende kart.


METAR-TAF: